createdAt,value
2023-04-12T00:00:53.024Z,11.40
2023-04-12T00:03:22.038Z,11.40
2023-04-12T00:05:54.531Z,11.40
2023-04-12T00:08:26.703Z,11.40
2023-04-12T00:10:53.596Z,11.40
2023-04-12T00:13:20.521Z,11.40
2023-04-12T00:15:49.744Z,11.40
2023-04-12T00:18:16.475Z,11.50
2023-04-12T00:20:43.637Z,11.40
2023-04-12T00:23:12.847Z,11.40
2023-04-12T00:25:39.596Z,11.40
2023-04-12T00:28:06.525Z,11.30
2023-04-12T00:30:33.289Z,11.40
2023-04-12T00:33:00.145Z,11.40
2023-04-12T00:35:26.933Z,11.40
2023-04-12T00:37:54.640Z,11.40
2023-04-12T00:40:23.533Z,11.20
2023-04-12T00:42:50.474Z,11.20
2023-04-12T00:45:17.162Z,11.30
2023-04-12T00:47:46.105Z,11.30
2023-04-12T00:50:17.285Z,11.20
2023-04-12T00:52:46.789Z,11.20
2023-04-12T00:55:15.993Z,11.20
2023-04-12T00:57:42.775Z,11.20
2023-04-12T01:00:13.797Z,11.20
2023-04-12T01:02:46.910Z,11.10
2023-04-12T01:05:22.394Z,11.20
2023-04-12T01:08:11.975Z,11.10
2023-04-12T01:11:01.140Z,11.10
2023-04-12T01:13:41.748Z,11.10
2023-04-12T01:16:40.673Z,11.10
2023-04-12T01:19:36.473Z,11.00
2023-04-12T01:22:22.224Z,11.00
2023-04-12T01:25:00.502Z,11.00
2023-04-12T01:27:44.960Z,11.10
2023-04-12T01:32:43.766Z,10.80
2023-04-12T01:35:13.767Z,10.70
2023-04-12T01:37:41.234Z,10.70
2023-04-12T01:40:12.139Z,10.70
2023-04-12T01:42:41.038Z,10.60
2023-04-12T01:45:08.240Z,10.80
2023-04-12T01:47:35.392Z,10.80
2023-04-12T01:50:37.229Z,10.80
2023-04-12T01:53:14.098Z,10.70
2023-04-12T01:55:45.837Z,10.80
2023-04-12T01:58:14.777Z,10.80
2023-04-12T02:00:44.171Z,10.70
2023-04-12T02:03:12.535Z,10.70
2023-04-12T02:05:42.160Z,10.70
2023-04-12T02:08:09.105Z,10.70
2023-04-12T02:10:36.858Z,10.70
2023-04-12T02:13:04.203Z,10.60
2023-04-12T02:15:31.256Z,10.70
2023-04-12T02:18:00.391Z,10.60
2023-04-12T02:30:18.942Z,10.40
2023-04-12T02:32:45.865Z,10.40
2023-04-12T02:35:17.422Z,10.40
2023-04-12T02:37:48.639Z,10.10
2023-04-12T02:40:15.696Z,10.10
2023-04-12T02:42:43.109Z,10.10
2023-04-12T02:45:11.265Z,10.00
2023-04-12T02:47:40.959Z,10.00
2023-04-12T02:50:10.834Z,10.00
2023-04-12T02:52:37.526Z,10.00
2023-04-12T02:55:06.796Z,10.00
2023-04-12T02:57:33.483Z,10.00
2023-04-12T03:00:00.367Z,10.00
2023-04-12T03:02:27.779Z,9.90
2023-04-12T03:04:54.750Z,9.90
2023-04-12T03:07:21.952Z,9.90
2023-04-12T03:09:50.727Z,9.90
2023-04-12T03:12:17.455Z,9.80
2023-04-12T03:14:49.078Z,9.80
2023-04-12T03:17:15.881Z,9.80
2023-04-12T03:19:42.550Z,9.80
2023-04-12T03:22:09.236Z,9.80
2023-04-12T03:24:37.108Z,9.70
2023-04-12T03:27:04.896Z,9.70
2023-04-12T03:29:32.185Z,9.70
2023-04-12T03:31:59.609Z,9.70
2023-04-12T03:34:32.163Z,9.70
2023-04-12T03:37:00.369Z,9.70
2023-04-12T03:39:27.281Z,9.70
2023-04-12T03:41:54.787Z,9.70
2023-04-12T03:44:26.120Z,9.60
2023-04-12T03:46:55.312Z,9.60
2023-04-12T03:49:22.111Z,9.60
2023-04-12T03:51:50.700Z,9.60
2023-04-12T03:54:17.368Z,9.60
2023-04-12T03:56:46.463Z,9.60
2023-04-12T03:59:14.669Z,9.60
2023-04-12T04:01:41.650Z,9.60
2023-04-12T04:04:10.943Z,9.60
2023-04-12T04:06:40.382Z,9.60
2023-04-12T04:09:09.601Z,9.60
2023-04-12T04:11:37.678Z,9.60
2023-04-12T04:14:04.334Z,9.60
2023-04-12T04:16:31.172Z,9.60
2023-04-12T04:18:57.951Z,9.60
2023-04-12T04:21:24.766Z,9.60
2023-04-12T04:23:58.420Z,9.60
2023-04-12T04:26:33.559Z,9.60
2023-04-12T04:29:03.676Z,9.60
2023-04-12T04:31:37.650Z,9.60
2023-04-12T04:34:05.517Z,9.60
2023-04-12T04:36:38.033Z,9.50
2023-04-12T04:39:06.961Z,9.50
2023-04-12T04:41:39.541Z,9.50
2023-04-12T04:44:10.442Z,9.50
2023-04-12T04:46:38.158Z,9.50
2023-04-12T04:49:05.418Z,9.50
2023-04-12T04:51:32.429Z,9.50
2023-04-12T04:53:59.311Z,9.50
2023-04-12T04:56:28.545Z,9.40
2023-04-12T04:58:57.457Z,9.40
2023-04-12T05:01:28.518Z,9.40
2023-04-12T05:03:56.091Z,9.40
2023-04-12T05:06:27.249Z,9.40
2023-04-12T05:08:56.948Z,9.40
2023-04-12T05:11:23.879Z,9.50
2023-04-12T05:13:50.723Z,9.40
2023-04-12T05:16:19.965Z,9.40
2023-04-12T05:18:46.745Z,9.40
2023-04-12T05:21:15.958Z,9.40
2023-04-12T05:23:46.192Z,9.40
2023-04-12T05:26:15.395Z,9.30
2023-04-12T05:28:42.038Z,9.40
2023-04-12T05:31:09.469Z,9.30
2023-04-12T05:33:36.838Z,9.30
2023-04-12T05:36:04.120Z,9.30
2023-04-12T05:38:33.334Z,9.30
2023-04-12T05:43:33.876Z,9.30
2023-04-12T05:46:00.612Z,9.40
2023-04-12T05:48:27.331Z,9.40
2023-04-12T05:50:54.581Z,9.40
2023-04-12T05:53:22.432Z,9.40
2023-04-12T05:55:49.179Z,9.40
2023-04-12T05:58:18.099Z,9.50
2023-04-12T06:00:45.303Z,9.40
2023-04-12T06:03:12.389Z,9.40
2023-04-12T06:05:41.470Z,9.40
2023-04-12T06:08:12.827Z,9.50
2023-04-12T06:10:39.584Z,9.50
2023-04-12T06:13:06.275Z,9.50
2023-04-12T06:15:33.555Z,9.50
2023-04-12T06:18:00.559Z,9.50
2023-04-12T06:20:27.524Z,9.50
2023-04-12T06:22:56.541Z,9.60
2023-04-12T06:25:23.978Z,9.50
2023-04-12T06:27:50.719Z,9.50
2023-04-12T06:30:18.468Z,9.50
2023-04-12T06:32:45.221Z,9.50
2023-04-12T06:35:14.051Z,9.60
2023-04-12T06:37:40.706Z,9.60
2023-04-12T06:40:08.499Z,9.60
2023-04-12T06:42:35.289Z,9.60
2023-04-12T06:45:02.201Z,9.60
2023-04-12T06:47:29.572Z,9.70
2023-04-12T06:49:58.608Z,9.70
2023-04-12T06:52:26.585Z,9.70
2023-04-12T06:54:54.244Z,9.70
2023-04-12T06:57:20.961Z,9.70
2023-04-12T06:59:50.306Z,9.70
2023-04-12T07:02:17.069Z,9.70
2023-04-12T07:04:43.842Z,9.80
2023-04-12T07:07:10.835Z,9.80
2023-04-12T07:09:37.961Z,9.70
2023-04-12T07:12:04.999Z,9.80
2023-04-12T07:14:31.861Z,9.80
2023-04-12T07:17:01.032Z,9.90
2023-04-12T07:19:31.211Z,10.00
2023-04-12T07:21:58.417Z,10.00
2023-04-12T07:24:27.613Z,10.00
2023-04-12T07:26:57.177Z,10.10
2023-04-12T07:29:23.951Z,10.10
2023-04-12T07:31:50.897Z,10.10
2023-04-12T07:34:17.890Z,10.10
2023-04-12T07:36:44.966Z,10.10
2023-04-12T07:39:14.641Z,10.10
2023-04-12T07:41:46.393Z,10.20
2023-04-12T07:44:13.098Z,10.20
2023-04-12T07:46:41.881Z,10.20
2023-04-12T07:49:10.547Z,10.20
2023-04-12T07:51:37.627Z,10.20
2023-04-12T07:54:04.650Z,10.30
2023-04-12T07:56:35.289Z,10.30
2023-04-12T07:59:02.228Z,10.30
2023-04-12T08:01:28.993Z,10.30
2023-04-12T08:03:55.965Z,10.40
2023-04-12T08:06:22.969Z,10.40
2023-04-12T08:08:52.235Z,10.50
2023-04-12T08:11:19.001Z,10.60
2023-04-12T08:13:48.088Z,10.50
2023-04-12T08:16:17.350Z,10.50
2023-04-12T08:18:44.196Z,10.40
2023-04-12T08:21:10.979Z,10.40
2023-04-12T08:23:38.155Z,10.40
2023-04-12T08:26:05.114Z,10.50
2023-04-12T08:28:32.570Z,10.50
2023-04-12T08:30:59.661Z,10.50
2023-04-12T08:33:26.964Z,10.50
2023-04-12T08:35:53.970Z,10.50
2023-04-12T08:38:25.413Z,10.60
2023-04-12T08:40:58.475Z,10.70
2023-04-12T08:43:29.024Z,10.90
2023-04-12T08:48:26.120Z,11.10
2023-04-12T08:50:53.167Z,11.20
2023-04-12T08:53:19.896Z,11.20
2023-04-12T08:55:46.686Z,11.20
2023-04-12T08:58:19.647Z,11.20
2023-04-12T09:00:47.117Z,11.10
2023-04-12T09:03:14.232Z,11.20
2023-04-12T09:05:41.655Z,11.10
2023-04-12T09:08:08.428Z,11.30
2023-04-12T09:13:04.979Z,11.70
2023-04-12T09:15:31.920Z,11.70
2023-04-12T09:18:15.178Z,11.80
2023-04-12T09:20:43.988Z,11.90
2023-04-12T09:23:21.811Z,12.00
2023-04-12T09:25:51.677Z,12.00
2023-04-12T09:28:29.811Z,11.90
2023-04-12T09:31:00.549Z,11.80
2023-04-12T09:33:34.400Z,11.70
2023-04-12T09:36:09.323Z,11.90
2023-04-12T09:38:37.045Z,11.90
2023-04-12T09:41:26.915Z,12.00
2023-04-12T09:43:54.206Z,12.10
2023-04-12T09:46:21.079Z,12.20
2023-04-12T09:48:53.071Z,12.20
2023-04-12T09:51:33.355Z,12.20
2023-04-12T09:54:05.637Z,12.20
2023-04-12T09:56:35.788Z,12.30
2023-04-12T09:59:07.213Z,12.30
2023-04-12T10:01:39.602Z,12.20
2023-04-12T10:04:08.282Z,12.20
2023-04-12T10:06:37.221Z,12.10
2023-04-12T10:09:04.800Z,12.10
2023-04-12T10:11:33.912Z,12.10
2023-04-12T10:14:05.932Z,12.20
2023-04-12T10:16:35.018Z,12.50
2023-04-12T10:19:04.704Z,12.60
2023-04-12T10:21:31.892Z,12.90
2023-04-12T10:24:01.626Z,13.00
2023-04-12T10:26:28.583Z,13.00
2023-04-12T10:29:23.837Z,13.10
2023-04-12T10:31:51.068Z,13.20
2023-04-12T10:34:20.283Z,13.20
2023-04-12T10:36:59.803Z,13.20
2023-04-12T10:39:44.156Z,13.20
2023-04-12T10:42:23.496Z,13.30
2023-04-12T10:47:50.284Z,13.60
2023-04-12T10:50:29.547Z,13.70
2023-04-12T10:53:18.217Z,13.90
2023-04-12T10:55:48.354Z,14.30
2023-04-12T11:01:01.123Z,14.90
2023-04-12T11:03:30.283Z,14.90
2023-04-12T11:06:16.190Z,14.80
2023-04-12T11:08:55.255Z,14.60
2023-04-12T11:11:22.669Z,14.40
2023-04-12T11:13:56.041Z,14.30
2023-04-12T11:16:23.013Z,14.10
2023-04-12T11:18:50.482Z,14.00
2023-04-12T11:21:18.501Z,13.70
2023-04-12T11:23:48.871Z,13.40
2023-04-12T11:26:20.850Z,12.90
2023-04-12T11:28:48.320Z,12.30
2023-04-12T11:31:21.474Z,12.00
2023-04-12T11:33:48.345Z,11.80
2023-04-12T11:36:15.147Z,11.70
2023-04-12T11:38:42.242Z,11.60
2023-04-12T11:41:09.478Z,11.50
2023-04-12T11:43:38.656Z,11.40
2023-04-12T11:46:06.102Z,11.40
2023-04-12T11:48:33.236Z,11.50
2023-04-12T11:51:10.343Z,11.80
2023-04-12T11:53:39.433Z,12.10
2023-04-12T11:56:12.451Z,12.20
2023-04-12T11:58:41.643Z,12.30
2023-04-12T12:01:11.100Z,12.20
2023-04-12T12:03:38.071Z,12.30
2023-04-12T12:06:05.813Z,12.40
2023-04-12T12:08:33.118Z,12.30
2023-04-12T12:11:07.995Z,12.30
2023-04-12T12:13:55.013Z,12.30
2023-04-12T12:16:31.331Z,12.40
2023-04-12T12:18:58.277Z,12.60
2023-04-12T12:21:27.162Z,12.60
2023-04-12T12:23:54.462Z,12.60
2023-04-12T12:26:22.808Z,12.70
2023-04-12T12:28:56.823Z,12.80
2023-04-12T12:31:26.379Z,13.10
2023-04-12T12:33:58.188Z,13.30
2023-04-12T12:36:36.783Z,13.50
2023-04-12T12:39:07.246Z,13.90
2023-04-12T12:41:37.938Z,14.10
2023-04-12T12:44:05.217Z,14.20
2023-04-12T12:46:50.971Z,14.10
2023-04-12T12:49:19.323Z,13.90
2023-04-12T12:51:48.295Z,13.80
2023-04-12T12:54:28.472Z,13.70
2023-04-12T12:57:04.374Z,13.60
2023-04-12T12:59:31.340Z,13.60
2023-04-12T13:01:58.257Z,13.60
2023-04-12T13:04:25.283Z,13.60
2023-04-12T13:06:52.411Z,13.60
2023-04-12T13:09:21.732Z,13.60
2023-04-12T13:11:48.421Z,13.40
2023-04-12T13:14:17.475Z,13.20
2023-04-12T13:16:46.188Z,13.00
2023-04-12T13:19:13.062Z,12.90
2023-04-12T13:21:39.711Z,12.80
2023-04-12T13:24:06.592Z,12.80
2023-04-12T13:26:35.509Z,12.80
2023-04-12T13:29:02.186Z,12.90
2023-04-12T13:31:29.036Z,12.90
2023-04-12T13:33:55.769Z,13.00
2023-04-12T13:36:22.455Z,13.10
2023-04-12T13:38:49.124Z,13.30
2023-04-12T13:41:19.115Z,13.50
2023-04-12T13:43:45.801Z,13.70
2023-04-12T13:46:14.758Z,13.70
2023-04-12T13:48:41.585Z,13.60
2023-04-12T13:51:09.074Z,13.60
2023-04-12T13:53:36.422Z,13.60
2023-04-12T13:56:03.164Z,13.90
2023-04-12T13:58:32.009Z,14.10
2023-04-12T14:01:00.522Z,14.40
2023-04-12T14:03:28.598Z,14.80
2023-04-12T14:05:56.036Z,15.10
2023-04-12T14:08:22.853Z,15.40
2023-04-12T14:10:49.691Z,15.40
2023-04-12T14:13:16.506Z,15.30
2023-04-12T14:15:43.145Z,15.00
2023-04-12T14:18:09.877Z,14.90
2023-04-12T14:20:38.818Z,14.70
2023-04-12T14:23:08.076Z,14.60
2023-04-12T14:25:39.642Z,14.40
2023-04-12T14:28:09.017Z,14.30
2023-04-12T14:30:38.288Z,14.20
2023-04-12T14:33:05.115Z,14.20
2023-04-12T14:35:34.319Z,14.60
2023-04-12T14:38:01.073Z,15.20
2023-04-12T14:40:30.385Z,16.40
2023-04-12T14:42:57.154Z,16.60
2023-04-12T14:45:23.888Z,16.60
2023-04-12T14:47:50.842Z,16.30
2023-04-12T14:50:17.556Z,16.20
2023-04-12T14:52:44.250Z,15.90
2023-04-12T14:55:11.209Z,15.70
2023-04-12T14:57:39.076Z,15.20
2023-04-12T15:00:13.168Z,15.00
2023-04-12T15:02:41.239Z,15.00
2023-04-12T15:05:08.576Z,14.90
2023-04-12T15:07:35.919Z,14.80
2023-04-12T15:10:04.839Z,14.60
2023-04-12T15:12:35.370Z,14.50
2023-04-12T15:15:06.212Z,14.40
2023-04-12T15:17:34.193Z,14.20
2023-04-12T15:20:09.176Z,14.10
2023-04-12T15:22:36.510Z,14.20
2023-04-12T15:25:04.231Z,13.80
2023-04-12T15:27:33.867Z,13.70
2023-04-12T15:37:53.711Z,11.90
2023-04-12T15:40:21.231Z,11.90
2023-04-12T15:42:47.954Z,11.80
2023-04-12T15:45:14.710Z,11.90
2023-04-12T15:47:47.813Z,12.10
2023-04-12T15:50:14.574Z,12.10
2023-04-12T15:52:43.073Z,12.20
2023-04-12T15:55:12.276Z,12.30
2023-04-12T15:57:39.167Z,12.40
2023-04-12T16:00:24.659Z,12.40
2023-04-12T16:02:54.568Z,12.50
2023-04-12T16:05:24.497Z,12.40
2023-04-12T16:07:51.505Z,12.20
2023-04-12T16:10:22.239Z,12.10
2023-04-12T16:12:53.890Z,12.00
2023-04-12T16:15:21.049Z,11.80
2023-04-12T16:17:48.877Z,11.80
2023-04-12T16:20:21.679Z,11.70
2023-04-12T16:22:55.922Z,11.70
2023-04-12T16:25:24.238Z,11.60
2023-04-12T16:27:51.505Z,11.60
2023-04-12T16:30:18.533Z,11.50
2023-04-12T16:32:48.824Z,11.40
2023-04-12T16:35:16.040Z,11.10
2023-04-12T16:37:47.038Z,10.80
2023-04-12T16:42:45.945Z,10.70
2023-04-12T16:45:14.868Z,10.80
2023-04-12T16:47:41.898Z,10.80
2023-04-12T16:50:09.495Z,11.00
2023-04-12T16:52:37.634Z,11.40
2023-04-12T16:55:04.821Z,11.90
2023-04-12T16:57:32.736Z,12.50
2023-04-12T16:59:59.523Z,12.40
2023-04-12T17:02:31.296Z,11.90
2023-04-12T17:04:58.134Z,11.50
2023-04-12T17:07:24.903Z,11.50
2023-04-12T17:09:54.953Z,11.80
2023-04-12T17:12:22.090Z,11.90
2023-04-12T17:14:51.159Z,11.80
2023-04-12T17:17:17.922Z,11.70
2023-04-12T17:19:44.581Z,11.40
2023-04-12T17:22:17.995Z,11.10
2023-04-12T17:24:46.262Z,10.80
2023-04-12T17:27:12.947Z,10.60
2023-04-12T18:01:43.102Z,9.80
2023-04-12T18:04:09.945Z,9.80
2023-04-12T18:09:06.794Z,9.60
2023-04-12T18:11:38.777Z,9.70
2023-04-12T19:33:28.925Z,8.80
2023-04-12T19:38:25.309Z,8.70
2023-04-12T19:40:52.339Z,8.60
2023-04-12T19:43:19.022Z,8.60
2023-04-12T19:45:46.062Z,8.40
2023-04-12T19:48:13.017Z,8.40
2023-04-12T19:53:11.015Z,8.30
2023-04-12T19:55:38.781Z,8.30
2023-04-12T19:58:06.120Z,8.30
2023-04-12T20:00:32.831Z,8.40
2023-04-12T20:02:59.598Z,8.40
2023-04-12T20:05:26.823Z,8.30
2023-04-12T20:07:55.797Z,8.30
2023-04-12T20:10:22.673Z,8.30
2023-04-12T20:12:49.436Z,8.20
2023-04-12T20:15:17.600Z,8.20
2023-04-12T20:17:44.730Z,8.20
2023-04-12T20:20:15.474Z,8.10
2023-04-12T20:22:43.881Z,8.20
2023-04-12T20:25:11.373Z,8.20
2023-04-12T20:27:39.083Z,8.10
2023-04-12T20:30:07.420Z,8.10
2023-04-12T20:32:35.823Z,8.10
2023-04-12T20:35:03.954Z,8.10
2023-04-12T20:37:30.680Z,8.00
2023-04-12T20:39:59.292Z,8.10
2023-04-12T20:42:28.722Z,8.10
2023-04-12T20:45:00.391Z,8.10
2023-04-12T20:47:29.765Z,8.10
2023-04-12T20:49:57.011Z,8.10
2023-04-12T20:52:23.711Z,8.10
2023-04-12T20:54:50.445Z,8.10
2023-04-12T20:57:19.973Z,8.10
2023-04-12T20:59:47.150Z,8.10
2023-04-12T21:02:16.246Z,8.00
2023-04-12T21:04:45.046Z,7.90
2023-04-12T21:07:18.114Z,7.90
2023-04-12T21:09:44.914Z,7.90
2023-04-12T21:12:11.755Z,7.90
2023-04-12T21:14:40.669Z,7.90
2023-04-12T21:17:07.911Z,7.90
2023-04-12T21:19:41.834Z,8.00
2023-04-12T21:22:08.737Z,8.00
2023-04-12T21:24:38.237Z,8.00
2023-04-12T21:27:08.382Z,8.00
2023-04-12T21:29:41.197Z,8.00
2023-04-12T21:32:09.195Z,8.00
2023-04-12T21:34:36.020Z,8.10
2023-04-12T21:37:04.152Z,8.10
2023-04-12T21:39:33.531Z,8.10
2023-04-12T21:42:01.617Z,8.10
2023-04-12T21:44:28.344Z,8.20
2023-04-12T21:46:55.052Z,8.20
2023-04-12T21:49:23.882Z,8.20
2023-04-12T21:51:56.856Z,8.20
2023-04-12T21:54:28.671Z,8.20
2023-04-12T21:56:58.216Z,8.20
2023-04-12T21:59:27.810Z,8.10
2023-04-12T22:01:57.137Z,8.00
2023-04-12T22:04:23.898Z,8.00
2023-04-12T22:06:53.053Z,8.00
2023-04-12T22:09:20.259Z,7.90
2023-04-12T22:14:15.770Z,7.70
2023-04-12T22:16:42.455Z,7.70
2023-04-12T22:19:09.278Z,7.60
2023-04-12T22:21:35.938Z,7.50
2023-04-12T22:24:08.049Z,7.50
2023-04-12T22:26:34.775Z,7.50
2023-04-12T22:29:01.448Z,7.50
2023-04-12T22:31:33.118Z,7.60
2023-04-12T22:34:01.646Z,7.60
2023-04-12T22:36:29.653Z,7.60
2023-04-12T22:38:56.522Z,7.50
2023-04-12T22:41:28.444Z,7.50
2023-04-12T22:44:01.262Z,7.40
2023-04-12T22:46:32.132Z,7.40
2023-04-12T22:49:00.444Z,7.50
2023-04-12T22:51:27.846Z,7.50
2023-04-12T22:53:59.728Z,7.40
2023-04-12T22:56:29.170Z,7.40
2023-04-12T22:58:55.844Z,7.40
2023-04-12T23:01:25.177Z,7.40
2023-04-12T23:03:51.983Z,7.40
2023-04-12T23:06:20.520Z,7.40
2023-04-12T23:08:49.537Z,7.30
2023-04-12T23:11:16.324Z,7.30
2023-04-12T23:13:45.387Z,7.30
2023-04-12T23:16:12.086Z,7.30
2023-04-12T23:18:41.336Z,7.30
2023-04-12T23:21:11.072Z,7.30
2023-04-12T23:23:38.130Z,7.30
2023-04-12T23:26:05.272Z,7.40
2023-04-12T23:28:34.411Z,7.30
2023-04-12T23:31:01.726Z,7.30
2023-04-12T23:33:28.941Z,7.30
2023-04-12T23:36:05.264Z,7.30
2023-04-12T23:38:34.664Z,7.30
2023-04-12T23:41:03.906Z,7.30
2023-04-12T23:43:32.523Z,7.40
2023-04-12T23:46:02.147Z,7.30
2023-04-12T23:48:32.263Z,7.20
2023-04-12T23:50:59.238Z,7.20
2023-04-12T23:53:25.912Z,7.20
2023-04-12T23:55:57.137Z,7.20
2023-04-12T23:58:25.425Z,7.30
